createdAt,value
2023-03-26T00:00:17.192Z,59.44
2023-03-26T00:03:08.018Z,58.65
2023-03-26T00:05:39.129Z,61.75
2023-03-26T00:08:10.256Z,60.05
2023-03-26T00:10:41.901Z,58.00
2023-03-26T00:13:12.861Z,61.22
2023-03-26T00:15:43.980Z,62.23
2023-03-26T00:18:15.124Z,57.85
2023-03-26T00:20:45.963Z,58.20
2023-03-26T00:23:17.112Z,61.25
2023-03-26T00:25:51.401Z,62.50
2023-03-26T00:28:23.172Z,58.73
2023-03-26T00:30:59.037Z,57.52
2023-03-26T00:33:31.711Z,60.73
2023-03-26T00:36:04.420Z,62.39
2023-03-26T00:38:39.155Z,58.19
2023-03-26T00:41:18.153Z,59.43
2023-03-26T00:43:50.303Z,62.38
2023-03-26T00:46:21.318Z,58.98
2023-03-26T00:48:52.156Z,59.98
2023-03-26T00:51:23.941Z,62.64
2023-03-26T00:53:55.156Z,60.10
2023-03-26T00:56:26.648Z,57.98
2023-03-26T00:58:58.099Z,60.81
2023-03-26T01:01:30.725Z,62.42
2023-03-26T01:04:15.148Z,58.13
2023-03-26T01:06:47.145Z,60.39
2023-03-26T01:09:19.453Z,62.32
2023-03-26T01:11:51.100Z,58.49
2023-03-26T01:14:23.975Z,60.11
2023-03-26T01:16:56.791Z,62.84
2023-03-26T01:19:30.712Z,59.53
2023-03-26T01:22:02.124Z,57.77
2023-03-26T01:24:33.369Z,60.32
2023-03-26T01:27:11.378Z,62.63
2023-03-26T01:29:44.359Z,58.84
2023-03-26T01:32:24.047Z,58.52
2023-03-26T01:35:12.759Z,61.91
2023-03-26T01:37:52.696Z,60.25
2023-03-26T01:40:27.534Z,61.08
2023-03-26T01:43:01.778Z,63.14
2023-03-26T01:45:35.280Z,59.87
2023-03-26T01:48:06.661Z,64.01
2023-03-26T01:50:37.736Z,63.89
2023-03-26T01:53:10.068Z,60.01
2023-03-26T01:55:49.956Z,62.92
2023-03-26T01:58:26.906Z,61.75
2023-03-26T02:01:02.481Z,61.16
2023-03-26T02:03:34.738Z,64.87
2023-03-26T02:06:08.613Z,64.34
2023-03-26T02:08:41.751Z,61.79
2023-03-26T02:11:14.309Z,58.42
2023-03-26T02:13:46.105Z,62.36
2023-03-26T02:16:19.099Z,63.36
2023-03-26T02:18:55.909Z,60.55
2023-03-26T02:21:27.598Z,59.36
2023-03-26T02:24:03.494Z,61.77
2023-03-26T02:26:37.905Z,65.01
2023-03-26T02:29:15.118Z,62.73
2023-03-26T02:31:48.453Z,61.42
2023-03-26T02:34:19.422Z,57.92
2023-03-26T02:36:54.263Z,61.05
2023-03-26T02:39:26.584Z,65.00
2023-03-26T02:42:07.312Z,62.57
2023-03-26T02:44:42.797Z,60.60
2023-03-26T02:47:22.868Z,59.16
2023-03-26T02:49:56.449Z,58.83
2023-03-26T02:52:49.507Z,63.86
2023-03-26T02:55:20.667Z,65.67
2023-03-26T02:57:52.946Z,64.55
2023-03-26T03:00:26.928Z,62.97
2023-03-26T03:03:18.006Z,62.05
2023-03-26T03:06:03.509Z,59.60
2023-03-26T03:08:46.397Z,60.22
2023-03-26T03:11:37.546Z,63.67
2023-03-26T03:14:08.896Z,61.43
2023-03-26T03:16:39.978Z,59.13
2023-03-26T03:19:13.226Z,59.90
2023-03-26T03:21:44.370Z,63.19
2023-03-26T03:24:18.656Z,63.53
2023-03-26T03:26:56.998Z,61.98
2023-03-26T03:29:46.089Z,60.87
2023-03-26T03:32:37.075Z,59.17
2023-03-26T03:35:09.241Z,59.41
2023-03-26T03:37:40.080Z,62.85
2023-03-26T03:40:12.352Z,64.07
2023-03-26T03:42:43.202Z,61.98
2023-03-26T03:45:15.241Z,60.41
2023-03-26T03:47:46.420Z,57.91
2023-03-26T03:50:18.034Z,61.95
2023-03-26T03:53:08.550Z,62.66
2023-03-26T03:55:42.324Z,61.53
2023-03-26T03:58:14.775Z,60.81
2023-03-26T04:00:46.022Z,60.05
2023-03-26T04:03:38.913Z,58.27
2023-03-26T04:06:14.460Z,60.76
2023-03-26T04:08:45.304Z,64.07
2023-03-26T04:11:16.540Z,62.07
2023-03-26T04:14:08.169Z,58.84
2023-03-26T04:17:08.725Z,59.48
2023-03-26T04:19:40.617Z,63.77
2023-03-26T04:22:12.717Z,63.38
2023-03-26T04:24:54.546Z,61.09
2023-03-26T04:27:32.920Z,60.30
2023-03-26T04:30:17.339Z,58.56
2023-03-26T04:32:49.571Z,58.78
2023-03-26T04:35:20.550Z,60.85
2023-03-26T04:37:56.853Z,65.32
2023-03-26T04:40:32.287Z,63.38
2023-03-26T04:43:19.013Z,62.86
2023-03-26T04:46:15.057Z,60.61
2023-03-26T04:48:53.454Z,58.13
2023-03-26T04:51:27.437Z,58.55
2023-03-26T04:54:00.333Z,61.89
2023-03-26T04:56:40.934Z,64.14
2023-03-26T04:59:26.324Z,61.65
2023-03-26T05:02:00.349Z,58.41
2023-03-26T05:04:34.293Z,59.25
2023-03-26T05:07:05.740Z,62.60
2023-03-26T05:09:45.629Z,61.47
2023-03-26T05:12:19.079Z,58.49
2023-03-26T05:14:57.088Z,60.56
2023-03-26T05:17:57.261Z,63.51
2023-03-26T05:20:40.099Z,61.62
2023-03-26T05:23:11.823Z,58.14
2023-03-26T05:25:47.274Z,61.14
2023-03-26T05:28:25.133Z,63.43
2023-03-26T05:31:09.756Z,61.28
2023-03-26T05:33:43.043Z,59.89
2023-03-26T05:36:16.542Z,57.90
2023-03-26T05:38:52.579Z,58.82
2023-03-26T05:41:46.306Z,62.14
2023-03-26T05:44:17.453Z,63.85
2023-03-26T05:46:48.530Z,60.93
2023-03-26T05:49:24.561Z,58.41
2023-03-26T05:51:55.655Z,57.78
2023-03-26T05:54:56.017Z,61.24
2023-03-26T05:57:45.524Z,62.89
2023-03-26T06:00:42.435Z,58.32
2023-03-26T06:03:15.235Z,61.26
2023-03-26T06:05:51.616Z,63.67
2023-03-26T06:08:38.605Z,59.46
2023-03-26T06:11:10.468Z,56.59
2023-03-26T06:13:43.893Z,59.38
2023-03-26T06:16:26.346Z,62.01
2023-03-26T06:19:08.670Z,63.44
2023-03-26T06:21:59.737Z,58.58
2023-03-26T06:24:38.505Z,59.88
2023-03-26T06:27:25.934Z,62.34
2023-03-26T06:30:17.459Z,61.43
2023-03-26T06:33:04.833Z,57.69
2023-03-26T06:35:43.308Z,59.77
2023-03-26T06:38:14.505Z,62.23
2023-03-26T06:40:45.978Z,60.49
2023-03-26T06:43:39.714Z,57.77
2023-03-26T06:46:28.948Z,61.10
2023-03-26T06:49:18.083Z,62.20
2023-03-26T06:51:54.856Z,57.29
2023-03-26T06:54:53.345Z,58.32
2023-03-26T06:57:45.374Z,61.85
2023-03-26T07:00:42.545Z,59.91
2023-03-26T07:03:39.973Z,57.26
2023-03-26T07:06:29.264Z,60.56
2023-03-26T07:09:18.358Z,62.24
2023-03-26T07:12:08.926Z,59.11
2023-03-26T07:14:40.074Z,55.58
2023-03-26T07:17:29.335Z,57.89
2023-03-26T07:20:27.198Z,60.44
2023-03-26T07:22:58.595Z,61.52
2023-03-26T07:25:45.678Z,61.45
2023-03-26T07:28:21.916Z,61.32
2023-03-26T07:31:17.858Z,61.24
2023-03-26T07:34:04.401Z,61.15
2023-03-26T07:36:49.998Z,60.97
2023-03-26T07:39:40.836Z,61.04
2023-03-26T07:42:29.320Z,60.86
2023-03-26T07:45:29.050Z,60.42
2023-03-26T07:48:17.379Z,60.76
2023-03-26T07:51:15.417Z,60.79
2023-03-26T07:53:55.900Z,60.24
2023-03-26T07:56:50.348Z,58.93
2023-03-26T07:59:41.374Z,58.96
2023-03-26T08:02:31.148Z,58.66
2023-03-26T08:05:19.107Z,58.55
2023-03-26T08:07:57.412Z,58.51
2023-03-26T08:10:38.620Z,58.29
2023-03-26T08:13:17.401Z,57.72
2023-03-26T08:15:53.946Z,57.85
2023-03-26T08:18:28.510Z,57.38
2023-03-26T08:21:01.581Z,57.40
2023-03-26T08:23:35.220Z,57.41
2023-03-26T08:26:09.808Z,57.40
2023-03-26T08:28:46.039Z,56.87
2023-03-26T08:31:18.179Z,56.62
2023-03-26T08:33:50.202Z,56.96
2023-03-26T08:36:21.342Z,56.91
2023-03-26T08:38:52.680Z,56.82
2023-03-26T08:41:49.533Z,57.19
2023-03-26T08:44:33.676Z,57.22
2023-03-26T08:47:18.758Z,57.31
2023-03-26T08:50:02.991Z,57.19
2023-03-26T08:52:50.676Z,56.34
2023-03-26T08:55:36.579Z,56.28
2023-03-26T08:58:28.542Z,56.82
2023-03-26T09:01:13.930Z,56.97
2023-03-26T09:04:00.043Z,57.16
2023-03-26T09:06:49.486Z,56.51
2023-03-26T09:09:28.006Z,56.25
2023-03-26T09:12:09.029Z,55.60
2023-03-26T09:14:48.021Z,54.48
2023-03-26T09:17:30.478Z,55.12
2023-03-26T09:20:15.786Z,54.80
2023-03-26T09:22:56.697Z,54.21
2023-03-26T09:25:43.571Z,54.48
2023-03-26T09:28:31.058Z,54.02
2023-03-26T09:31:18.464Z,53.37
2023-03-26T09:33:59.515Z,53.09
2023-03-26T09:36:43.255Z,53.66
2023-03-26T09:39:18.293Z,54.12
2023-03-26T09:41:54.466Z,54.42
2023-03-26T09:44:39.910Z,53.65
2023-03-26T09:47:27.296Z,53.62
2023-03-26T09:50:03.807Z,53.17
2023-03-26T09:52:42.826Z,53.35
2023-03-26T09:55:29.735Z,53.71
2023-03-26T09:58:13.304Z,53.89
2023-03-26T10:00:47.570Z,53.94
2023-03-26T10:03:27.577Z,54.11
2023-03-26T10:06:07.070Z,54.34
2023-03-26T10:08:44.781Z,54.71
2023-03-26T10:11:20.223Z,54.04
2023-03-26T10:14:05.306Z,53.70
2023-03-26T10:16:42.336Z,53.36
2023-03-26T10:19:19.869Z,53.26
2023-03-26T10:21:53.973Z,53.40
2023-03-26T10:24:41.343Z,53.83
2023-03-26T10:27:16.701Z,54.05
2023-03-26T10:30:01.103Z,53.69
2023-03-26T10:32:35.148Z,53.61
2023-03-26T10:35:04.830Z,53.37
2023-03-26T10:37:48.956Z,52.94
2023-03-26T10:40:23.948Z,52.68
2023-03-26T10:43:12.553Z,52.86
2023-03-26T10:45:56.333Z,53.13
2023-03-26T10:48:37.979Z,52.56
2023-03-26T10:51:27.931Z,52.52
2023-03-26T10:54:00.428Z,52.32
2023-03-26T10:56:34.680Z,51.16
2023-03-26T10:59:07.302Z,50.83
2023-03-26T11:01:43.182Z,50.93
2023-03-26T11:04:33.672Z,51.09
2023-03-26T11:07:10.142Z,50.95
2023-03-26T11:09:43.895Z,51.27
2023-03-26T11:12:26.738Z,51.64
2023-03-26T11:15:09.374Z,51.34
2023-03-26T11:17:45.549Z,50.90
2023-03-26T11:20:19.294Z,50.61
2023-03-26T11:22:56.687Z,50.24
2023-03-26T11:25:31.953Z,49.64
2023-03-26T11:28:14.013Z,49.23
2023-03-26T11:30:48.403Z,49.40
2023-03-26T11:33:21.645Z,50.09
2023-03-26T11:35:54.262Z,50.16
2023-03-26T11:45:16.764Z,49.80
2023-03-26T11:59:24.090Z,48.79
2023-03-26T12:01:59.507Z,48.86
2023-03-26T12:28:48.963Z,50.15
2023-03-26T12:31:20.670Z,50.43
2023-03-26T12:34:07.979Z,50.95
2023-03-26T12:36:39.309Z,51.22
2023-03-26T12:44:49.991Z,50.96
2023-03-26T12:47:54.259Z,50.34
2023-03-26T12:48:42.504Z,50.59
2023-03-26T13:03:03.338Z,47.71
2023-03-26T13:05:55.937Z,47.38
2023-03-26T13:08:34.532Z,48.06
2023-03-26T13:18:24.699Z,48.27
2023-03-26T13:20:58.536Z,48.62
2023-03-26T13:23:33.885Z,47.00
2023-03-26T13:33:26.863Z,46.72
2023-03-26T13:47:28.519Z,44.08
2023-03-26T14:01:24.345Z,45.52
2023-03-26T14:03:59.322Z,45.47
2023-03-26T14:17:05.542Z,41.02
2023-03-26T14:19:49.974Z,40.59
2023-03-26T14:22:25.623Z,41.09
2023-03-26T14:32:14.284Z,43.31
2023-03-26T14:34:53.288Z,43.84
2023-03-26T14:37:30.383Z,44.36
2023-03-26T14:47:19.379Z,46.83
2023-03-26T14:49:48.620Z,47.41
2023-03-26T14:52:22.680Z,47.64
2023-03-26T15:02:08.339Z,48.15
2023-03-26T15:16:34.739Z,48.80
2023-03-26T15:19:22.039Z,48.92
2023-03-26T15:30:41.251Z,49.27
2023-03-26T15:44:54.154Z,49.87
2023-03-26T15:47:39.444Z,49.93
2023-03-26T15:50:19.711Z,50.03
2023-03-26T15:52:54.805Z,50.38
2023-03-26T15:55:31.947Z,50.11
2023-03-26T16:09:49.288Z,48.53
2023-03-26T16:12:31.242Z,47.24
2023-03-26T16:24:25.426Z,46.23
2023-03-26T17:07:20.345Z,48.32
2023-03-26T17:21:23.248Z,49.22
2023-03-26T17:35:41.137Z,50.23
2023-03-26T17:38:32.931Z,50.54
2023-03-26T17:41:04.846Z,50.64
2023-03-26T17:51:18.515Z,51.71
2023-03-26T17:53:53.177Z,51.57
2023-03-26T18:06:55.459Z,51.90
2023-03-26T18:09:37.376Z,51.71
2023-03-26T18:20:38.184Z,52.10
2023-03-26T18:23:14.025Z,52.32
2023-03-26T18:36:17.089Z,53.13
2023-03-26T18:38:49.169Z,53.18
2023-03-26T18:41:23.873Z,53.67
2023-03-26T18:51:30.653Z,53.71
2023-03-26T18:54:05.513Z,54.26
2023-03-26T19:06:48.714Z,55.13
2023-03-26T19:09:31.101Z,55.57
2023-03-26T19:20:42.659Z,55.53
2023-03-26T19:23:15.917Z,55.93
2023-03-26T19:35:22.391Z,57.20
2023-03-26T19:37:55.176Z,58.04
2023-03-26T19:50:16.541Z,60.10
2023-03-26T19:52:47.597Z,61.13
2023-03-26T20:05:47.868Z,61.12
2023-03-26T20:20:17.914Z,64.30
2023-03-26T20:22:49.748Z,59.78
2023-03-26T20:35:16.455Z,60.22
2023-03-26T20:37:48.093Z,64.89
2023-03-26T20:49:51.551Z,60.44
2023-03-26T20:52:25.818Z,61.96
2023-03-26T21:05:24.948Z,61.45
2023-03-26T21:07:57.298Z,63.09
2023-03-26T21:21:20.284Z,60.38
2023-03-26T21:23:59.413Z,61.09
2023-03-26T21:26:32.109Z,66.39
2023-03-26T21:36:28.401Z,59.86
2023-03-26T21:39:00.127Z,59.51
2023-03-26T21:51:49.635Z,60.59
2023-03-26T21:54:24.166Z,60.59
2023-03-26T22:07:23.196Z,63.79
2023-03-26T22:21:17.626Z,62.95
2023-03-26T22:35:23.468Z,59.77
2023-03-26T22:50:09.585Z,62.81
2023-03-26T22:52:41.277Z,62.81
2023-03-26T23:04:51.289Z,60.11
2023-03-26T23:19:55.850Z,64.98
2023-03-26T23:34:21.508Z,62.82
2023-03-26T23:36:52.485Z,62.15
2023-03-26T23:49:44.010Z,59.32
